Time;durP1;ratioP1;P1;durP2;ratioP2;P2;SDS_P1;SDS_P2;PMS_P1;PMS_P2;Temp;Humidity;BMP_temperature;BMP_pressure;BME280_temperature;BME280_humidity;BME280_pressure;Samples;Min_cycle;Max_cycle;Signal;HPM_P1;HPM_P2
2023/08/29 00:02:12;346776.00;1.16;598.32;95816.00;0.32;166.35;;;;;18.50;3.80;;;;;;2276763;61;1345;-83
2023/08/29 00:04:38;431437.00;1.44;743.86;75784.00;0.25;131.75;;;;;18.40;2.80;;;;;;2276203;61;1271;-84
2023/08/29 00:07:05;327814.00;1.09;565.73;89199.00;0.30;154.92;;;;;18.50;3.80;;;;;;2276449;61;1114;-85
2023/08/29 00:09:32;192679.00;0.64;333.32;72923.00;0.24;126.81;;;;;18.40;3.30;;;;;;2276221;61;1114;-85
2023/08/29 00:12:00;173168.00;0.58;299.72;70555.00;0.24;122.72;;;;;18.40;2.40;;;;;;2276203;61;1398;-84
2023/08/29 00:14:28;168386.00;0.56;291.49;65906.00;0.22;114.69;;;;;18.50;1.70;;;;;;2276088;61;1180;-84
2023/08/29 00:16:55;360932.00;1.20;622.65;95768.00;0.32;166.27;;;;;18.50;3.00;;;;;;2276115;61;1019;-84
2023/08/29 00:19:22;171270.00;0.57;296.45;74937.00;0.25;130.29;;;;;18.60;2.60;;;;;;2275989;61;2018;-84
2023/08/29 00:21:48;166553.00;0.56;288.33;74142.00;0.25;128.92;;;;;18.80;1.50;;;;;;2275949;61;1256;-85
2023/08/29 00:24:15;300084.00;1.00;518.06;75770.00;0.25;131.73;;;;;18.80;1.40;;;;;;2275923;61;1148;-84
2023/08/29 00:26:42;257641.00;0.86;445.09;79029.00;0.26;137.36;;;;;18.60;1.00;;;;;;2275891;61;1216;-86
2023/08/29 00:29:09;232468.00;0.77;401.79;75911.00;0.25;131.97;;;;;18.60;1.00;;;;;;2275841;61;1248;-86
2023/08/29 00:31:37;242297.00;0.81;418.70;70453.00;0.23;122.54;;;;;18.60;1.00;;;;;;2275791;61;1359;-84
2023/08/29 00:34:04;210649.00;0.70;364.25;73049.00;0.24;127.03;;;;;18.50;1.30;;;;;;2275913;61;1164;-85
2023/08/29 00:36:30;167293.00;0.56;289.60;78911.00;0.26;137.16;;;;;18.50;1.80;;;;;;2276030;61;1124;-84
2023/08/29 00:38:57;169727.00;0.57;293.80;73258.00;0.24;127.39;;;;;18.60;1.90;;;;;;2276019;61;2005;-85
2023/08/29 00:41:24;0.00;0.00;0.62;0.00;0.00;0.62;;;;;18.50;2.20;;;;;;2275521;61;1272;-84
2023/08/29 00:43:51;29457.00;0.10;51.64;0.00;0.00;0.62;;;;;18.40;1.50;;;;;;2275916;61;1423;-84
2023/08/29 00:46:19;30412.00;0.10;53.30;0.00;0.00;0.62;;;;;18.40;1.00;;;;;;2275699;61;1160;-85
2023/08/29 00:48:49;269496.00;0.90;465.48;75989.00;0.25;132.11;;;;;18.40;2.00;;;;;;2275647;61;1442;-86
2023/08/29 00:51:17;292567.00;0.98;505.14;80646.00;0.27;140.15;;;;;18.20;2.20;;;;;;2275637;61;1410;-85
2023/08/29 00:53:45;284032.00;0.95;490.47;80567.00;0.27;140.02;;;;;18.40;2.20;;;;;;2275809;61;1078;-85
2023/08/29 00:56:17;215822.00;0.72;373.15;66807.00;0.22;116.24;;;;;18.20;1.70;;;;;;2275956;61;1446;-85
2023/08/29 00:58:44;170403.00;0.57;294.96;73722.00;0.25;128.19;;;;;18.30;1.70;;;;;;2275849;61;2002;-85
2023/08/29 01:01:12;221677.00;0.74;383.23;75258.00;0.25;130.85;;;;;18.30;1.50;;;;;;2275996;61;1317;-85
2023/08/29 01:03:40;277585.00;0.93;479.39;112741.00;0.38;195.56;;;;;18.40;1.60;;;;;;2275594;61;1177;-85
2023/08/29 01:06:08;414528.00;1.38;714.78;180317.00;0.60;312.04;;;;;18.30;2.30;;;;;;2275611;61;1070;-85
2023/08/29 01:08:36;245268.00;0.82;423.81;88313.00;0.29;153.39;;;;;18.30;1.80;;;;;;2275702;61;1641;-85
2023/08/29 01:11:12;168040.00;0.56;290.89;66202.00;0.22;115.20;;;;;18.20;2.40;;;;;;2275795;61;1223;-84
2023/08/29 01:13:45;271663.00;0.91;469.20;71733.00;0.24;124.75;;;;;18.30;1.90;;;;;;2275552;61;1180;-85
2023/08/29 01:16:16;212610.00;0.71;367.63;76287.00;0.25;132.62;;;;;18.30;2.60;;;;;;2275752;61;1053;-85
2023/08/29 01:18:46;200518.00;0.67;346.82;71217.00;0.24;123.86;;;;;18.50;1.80;;;;;;2275838;61;1996;-86
2023/08/29 01:21:31;199388.00;0.66;344.87;73999.00;0.25;128.67;;;;;18.50;1.50;;;;;;2275883;61;1332;-85
2023/08/29 01:24:06;272117.00;0.91;469.98;73116.00;0.24;127.14;;;;;18.40;2.10;;;;;;2275929;61;1132;-85
2023/08/29 01:26:35;239505.00;0.80;413.90;73393.00;0.24;127.62;;;;;18.10;2.20;;;;;;2276055;61;1073;-85
2023/08/29 01:29:03;191071.00;0.64;330.55;74295.00;0.25;129.18;;;;;18.00;3.00;;;;;;2276005;61;1113;-85
2023/08/29 01:31:32;274212.00;0.91;473.59;96431.00;0.32;167.41;;;;;17.90;4.50;;;;;;2275934;61;1298;-85
2023/08/29 01:33:59;242340.00;0.81;418.78;81153.00;0.27;141.03;;;;;17.80;4.50;;;;;;2275739;61;1135;-85
2023/08/29 01:36:27;192246.00;0.64;332.58;75550.00;0.25;131.35;;;;;17.90;3.70;;;;;;2275718;61;1109;-85
2023/08/29 01:38:54;233289.00;0.78;403.21;79480.00;0.26;138.14;;;;;17.90;4.40;;;;;;2276325;61;1927;-85
2023/08/29 01:41:21;397938.00;1.33;686.26;80022.00;0.27;139.08;;;;;17.80;4.50;;;;;;2276496;61;1414;-85
2023/08/29 01:43:49;213652.00;0.71;369.42;79960.00;0.27;138.97;;;;;17.60;4.40;;;;;;2276161;61;1121;-86
2023/08/29 01:46:16;321188.00;1.07;554.34;80027.00;0.27;139.08;;;;;17.60;4.90;;;;;;2276010;61;2044;-85
2023/08/29 01:48:44;167867.00;0.56;290.59;75167.00;0.25;130.69;;;;;17.40;5.10;;;;;;2276434;61;1191;-85
2023/08/29 01:51:11;171725.00;0.57;297.24;75077.00;0.25;130.53;;;;;17.40;6.00;;;;;;2276445;61;1338;-84
2023/08/29 01:53:38;173570.00;0.58;300.42;86411.00;0.29;150.11;;;;;17.40;6.00;;;;;;2276272;61;1164;-84
2023/08/29 01:56:08;227163.00;0.76;392.67;81147.00;0.27;141.02;;;;;17.50;5.80;;;;;;2276480;61;1045;-85
2023/08/29 01:58:36;287517.00;0.96;496.46;80555.00;0.27;140.00;;;;;17.70;4.90;;;;;;2276537;61;1919;-85
2023/08/29 02:01:05;221686.00;0.74;383.24;88965.00;0.30;154.52;;;;;18.00;5.00;;;;;;2276313;61;1278;-85
2023/08/29 02:03:32;195574.00;0.65;338.30;72064.00;0.24;125.33;;;;;18.10;4.60;;;;;;2276173;61;1109;-85
2023/08/29 02:05:59;117500.00;0.39;203.77;0.00;0.00;0.62;;;;;18.20;4.90;;;;;;2276276;61;1163;-85
2023/08/29 02:08:26;4293.00;0.01;8.06;0.00;0.00;0.62;;;;;18.00;4.70;;;;;;2276138;61;1211;-85
2023/08/29 02:10:53;4427.00;0.01;8.29;0.00;0.00;0.62;;;;;18.00;4.50;;;;;;2276250;61;1315;-85
2023/08/29 02:13:20;176231.00;0.59;305.00;23095.00;0.08;40.63;;;;;18.00;4.70;;;;;;2276372;61;1164;-85
2023/08/29 02:15:47;53319.00;0.18;92.93;0.00;0.00;0.62;;;;;18.10;4.80;;;;;;2276329;61;1127;-86
2023/08/29 02:18:15;98870.00;0.33;171.62;0.00;0.00;0.62;;;;;18.00;4.70;;;;;;2276515;61;1144;-85
2023/08/29 02:20:42;89422.00;0.30;155.31;7826.00;0.03;14.18;;;;;17.90;4.70;;;;;;2275895;61;2010;-84
2023/08/29 02:23:09;0.00;0.00;0.62;0.00;0.00;0.62;;;;;17.90;4.70;;;;;;2276368;61;1136;-85
2023/08/29 02:28:17;228418.00;0.76;394.83;78394.00;0.26;136.26;;;;;17.80;6.00;;;;;;2276341;61;1784;-85
2023/08/29 02:30:44;388209.00;1.29;669.54;103903.00;0.35;180.31;;;;;17.80;6.50;;;;;;2276920;61;1282;-86
2023/08/29 02:33:10;266320.00;0.89;460.02;74490.00;0.25;129.52;;;;;17.90;5.60;;;;;;2277032;61;1095;-85
2023/08/29 02:35:38;155949.00;0.52;270.06;75413.00;0.25;131.11;;;;;17.80;5.00;;;;;;2277131;61;1045;-85
2023/08/29 02:38:05;235810.00;0.79;407.54;69992.00;0.23;121.75;;;;;17.80;4.90;;;;;;2276991;61;1134;-86
2023/08/29 02:40:33;227199.00;0.76;392.73;76797.00;0.26;133.50;;;;;17.80;5.90;;;;;;2276900;61;1927;-86
2023/08/29 02:43:00;237622.00;0.79;410.66;69299.00;0.23;120.55;;;;;17.60;6.90;;;;;;2276965;61;1094;-86
2023/08/29 02:45:27;213632.00;0.71;369.39;71109.00;0.24;123.68;;;;;17.60;6.70;;;;;;2276999;61;1025;-85
2023/08/29 02:47:54;208551.00;0.70;360.64;77419.00;0.26;134.58;;;;;17.70;6.60;;;;;;2276991;61;1118;-86
2023/08/29 02:50:20;172111.00;0.57;297.90;78135.00;0.26;135.82;;;;;17.90;6.10;;;;;;2276374;61;1003;-86
2023/08/29 02:52:48;170158.00;0.57;294.54;78362.00;0.26;136.21;;;;;17.90;6.50;;;;;;2276872;61;2177;-85
2023/08/29 02:55:15;258630.00;0.86;446.79;85723.00;0.29;148.92;;;;;17.90;6.00;;;;;;2276965;61;1079;-86
2023/08/29 02:57:42;180606.00;0.60;312.53;68106.00;0.23;118.49;;;;;17.90;6.40;;;;;;2276978;61;1017;-86
2023/08/29 03:00:11;168167.00;0.56;291.11;74805.00;0.25;130.06;;;;;17.90;5.30;;;;;;2276890;61;1996;-86
2023/08/29 03:02:38;274649.00;0.92;474.34;77603.00;0.26;134.90;;;;;17.80;6.60;;;;;;2277198;61;1320;-86
2023/08/29 03:05:05;197761.00;0.66;342.07;75839.00;0.25;131.85;;;;;17.60;7.10;;;;;;2277302;61;1122;-86
2023/08/29 03:07:32;169489.00;0.56;293.39;76431.00;0.25;132.87;;;;;17.60;6.60;;;;;;2277247;61;1105;-85
2023/08/29 03:10:00;165645.00;0.55;286.76;70557.00;0.24;122.72;;;;;17.60;6.90;;;;;;2277201;61;1036;-87
2023/08/29 03:12:27;184423.00;0.61;319.11;74136.00;0.25;128.91;;;;;17.50;7.60;;;;;;2277193;61;1356;-85
2023/08/29 03:14:54;205788.00;0.69;355.89;76644.00;0.26;133.24;;;;;17.70;6.30;;;;;;2277205;61;1079;-86
2023/08/29 03:17:22;255107.00;0.85;440.73;74777.00;0.25;130.01;;;;;17.80;6.90;;;;;;2277187;61;1057;-86
2023/08/29 03:19:49;230949.00;0.77;399.18;81773.00;0.27;142.10;;;;;17.80;6.40;;;;;;2277172;61;1911;-86
2023/08/29 03:22:16;163718.00;0.55;283.44;74468.00;0.25;129.48;;;;;17.80;5.90;;;;;;2277165;61;1268;-85
2023/08/29 03:24:46;576565.00;1.92;993.77;95154.00;0.32;165.21;;;;;17.60;6.70;;;;;;2277195;61;1147;-85
2023/08/29 03:27:14;270667.00;0.90;467.49;77679.00;0.26;135.03;;;;;17.60;7.40;;;;;;2277207;61;1138;-86
2023/08/29 03:29:41;168156.00;0.56;291.09;77457.00;0.26;134.64;;;;;17.50;7.60;;;;;;2277203;61;935;-85
2023/08/29 03:32:08;168081.00;0.56;290.96;71297.00;0.24;124.00;;;;;17.50;7.60;;;;;;2277156;61;2109;-86
2023/08/29 03:34:35;256035.00;0.85;442.33;72660.00;0.24;126.36;;;;;17.60;8.10;;;;;;2277127;61;1107;-86
2023/08/29 03:37:02;353096.00;1.18;609.18;74953.00;0.25;130.32;;;;;17.50;7.70;;;;;;2277153;61;1028;-87
2023/08/29 03:39:28;470361.00;1.57;810.81;67668.00;0.23;117.73;;;;;17.50;7.80;;;;;;2277024;61;1998;-86
2023/08/29 03:41:55;164657.00;0.55;285.06;78710.00;0.26;136.81;;;;;17.50;8.90;;;;;;2277099;61;1393;-86
2023/08/29 03:44:24;245713.00;0.82;424.58;81675.00;0.27;141.93;;;;;17.50;8.80;;;;;;2277032;61;1064;-87
2023/08/29 03:46:51;382383.00;1.27;659.52;153673.00;0.51;266.14;;;;;17.40;8.60;;;;;;2277135;61;1106;-86
2023/08/29 03:49:18;166876.00;0.56;288.89;73482.00;0.24;127.78;;;;;17.40;9.20;;;;;;2276956;61;1553;-85
2023/08/29 03:51:45;170967.00;0.57;295.93;75141.00;0.25;130.64;;;;;17.50;9.90;;;;;;2276956;61;1307;-86
2023/08/29 03:54:11;235387.00;0.78;406.82;74969.00;0.25;130.35;;;;;17.50;8.50;;;;;;2277140;61;1067;-85
2023/08/29 03:56:38;172360.00;0.57;298.33;77348.00;0.26;134.46;;;;;17.50;8.80;;;;;;2277089;61;1055;-86
2023/08/29 03:59:05;7859.00;0.03;14.24;0.00;0.00;0.62;;;;;17.50;8.80;;;;;;2277059;61;2002;-86
2023/08/29 04:01:33;0.00;0.00;0.62;0.00;0.00;0.62;;;;;17.60;8.70;;;;;;2276745;61;1313;-84
2023/08/29 04:04:00;0.00;0.00;0.62;76301.00;0.25;132.65;;;;;17.80;8.90;;;;;;2277063;61;1065;-86
2023/08/29 04:06:27;116893720.00;389.65;64698924.00;0.00;0.00;0.62;;;;;17.60;8.10;;;;;;2277071;61;1094;-86
2023/08/29 04:08:54;115121.00;0.38;199.67;48114.00;0.16;83.92;;;;;17.70;8.30;;;;;;2277028;61;1061;-87
2023/08/29 04:11:21;97469.00;0.32;169.20;0.00;0.00;0.62;;;;;17.50;8.50;;;;;;2277044;61;1396;-87
2023/08/29 04:13:48;175531.00;0.59;303.79;68647.00;0.23;119.42;;;;;17.30;9.60;;;;;;2276929;61;1613;-86
2023/08/29 04:16:15;0.00;0.00;0.62;0.00;0.00;0.62;;;;;17.30;9.00;;;;;;2277009;61;1122;-86
2023/08/29 04:18:43;444554.00;1.48;766.42;101783.00;0.34;176.65;;;;;17.40;8.80;;;;;;2277021;61;1043;-86
2023/08/29 04:21:10;85200.00;0.28;148.02;18597.00;0.06;32.84;;;;;17.40;8.80;;;;;;2276898;61;1936;-86
2023/08/29 04:23:36;105654.00;0.35;183.33;17471.00;0.06;30.89;;;;;17.30;9.50;;;;;;2277032;61;1105;-85
2023/08/29 04:26:04;0.00;0.00;0.62;0.00;0.00;0.62;;;;;17.40;9.70;;;;;;2276993;61;1062;-86
2023/08/29 04:28:30;0.00;0.00;0.62;0.00;0.00;0.62;;;;;17.20;9.50;;;;;;2277015;61;1091;-86
2023/08/29 04:31:07;0.00;0.00;0.62;0.00;0.00;0.62;;;;;17.20;9.20;;;;;;2276892;61;1359;-85
2023/08/29 04:33:34;253837.00;0.85;438.55;72561.00;0.24;126.19;;;;;17.20;9.70;;;;;;2276961;61;1139;-85
2023/08/29 04:36:02;346888.00;1.16;598.51;79181.00;0.26;137.62;;;;;17.30;9.70;;;;;;2276884;61;1732;-86
2023/08/29 04:38:28;163492.00;0.54;283.06;73015.00;0.24;126.97;;;;;17.30;9.40;;;;;;2276988;61;1080;-86
2023/08/29 04:40:55;169505.00;0.57;293.41;77768.00;0.26;135.18;;;;;17.40;9.00;;;;;;2276816;61;2005;-86
2023/08/29 04:43:22;173964.00;0.58;301.09;84398.00;0.28;146.63;;;;;17.30;9.70;;;;;;2276887;61;1083;-86
2023/08/29 04:45:50;167170.00;0.56;289.39;76378.00;0.25;132.78;;;;;17.60;8.50;;;;;;2276885;61;1131;-85
2023/08/29 04:48:17;181244.00;0.60;313.63;73329.00;0.24;127.51;;;;;17.50;8.50;;;;;;2276876;61;1142;-85
2023/08/29 04:50:45;168946.00;0.56;292.45;72522.00;0.24;126.12;;;;;17.60;8.10;;;;;;2276877;61;1302;-85
2023/08/29 04:53:13;164774.00;0.55;285.26;72890.00;0.24;126.75;;;;;17.70;7.60;;;;;;2276912;61;1087;-86
2023/08/29 04:55:40;168047.00;0.56;290.90;81300.00;0.27;141.28;;;;;17.80;6.90;;;;;;2276900;61;1104;-86
2023/08/29 04:58:07;270791.00;0.90;467.70;99388.00;0.33;172.52;;;;;17.90;7.20;;;;;;2276888;61;1063;-86
2023/08/29 05:00:33;201442.00;0.67;348.41;74918.00;0.25;130.26;;;;;17.90;7.70;;;;;;2276835;61;2000;-87
2023/08/29 05:03:04;169789.00;0.57;293.90;72740.00;0.24;126.49;;;;;17.90;6.80;;;;;;2276774;61;1126;-86
2023/08/29 05:05:31;173245.00;0.58;299.86;78289.00;0.26;136.08;;;;;18.00;7.00;;;;;;2276864;61;1060;-86
2023/08/29 05:07:57;173266.00;0.58;299.89;81749.00;0.27;142.06;;;;;17.90;6.40;;;;;;2276887;61;969;-86
2023/08/29 05:10:26;227167.00;0.76;392.67;77634.00;0.26;134.95;;;;;17.90;7.10;;;;;;2276915;61;1397;-86
2023/08/29 05:12:53;308232.00;1.03;532.07;93103.00;0.31;161.67;;;;;17.80;7.40;;;;;;2276787;61;1115;-88
2023/08/29 05:15:19;263111.00;0.88;454.50;71772.00;0.24;124.82;;;;;17.60;8.00;;;;;;2276781;61;1050;-88
2023/08/29 05:17:47;490519.00;1.64;845.50;129901.00;0.43;225.16;;;;;17.40;9.50;;;;;;2276825;61;1134;-87
2023/08/29 05:20:13;218971.00;0.73;378.57;82967.00;0.28;144.16;;;;;17.40;9.90;;;;;;2276811;61;2010;-86
2023/08/29 05:22:40;215236.00;0.72;372.15;74358.00;0.25;129.29;;;;;17.20;10.00;;;;;;2276783;61;1233;-88
2023/08/29 05:25:08;277155.00;0.92;478.65;75177.00;0.25;130.71;;;;;17.20;10.80;;;;;;2276769;61;1690;-86
2023/08/29 05:27:36;169740.00;0.57;293.82;72525.00;0.24;126.12;;;;;17.30;10.30;;;;;;2276843;61;1130;-87
2023/08/29 05:30:04;311269.00;1.04;537.29;78207.00;0.26;135.94;;;;;17.50;10.50;;;;;;2276805;61;1119;-87
2023/08/29 05:32:31;269014.00;0.90;464.65;77284.00;0.26;134.35;;;;;17.70;9.40;;;;;;2276787;61;1470;-87
2023/08/29 05:34:58;419279.00;1.40;722.95;139760.00;0.47;242.16;;;;;18.00;9.00;;;;;;2276803;61;1075;-87
2023/08/29 05:37:25;169152.00;0.56;292.81;74913.00;0.25;130.25;;;;;18.10;8.20;;;;;;2276782;61;1113;-89
2023/08/29 05:39:52;173634.00;0.58;300.53;78942.00;0.26;137.21;;;;;18.10;7.60;;;;;;2276507;61;1996;-88
2023/08/29 05:42:19;168992.00;0.56;292.53;69366.00;0.23;120.66;;;;;18.10;8.10;;;;;;2276654;61;1378;-88
2023/08/29 05:44:47;200490.00;0.67;346.77;73042.00;0.24;127.02;;;;;18.50;6.80;;;;;;2276590;61;1081;-87
2023/08/29 05:47:14;178983.00;0.60;309.74;78578.00;0.26;136.58;;;;;18.60;6.60;;;;;;2276762;61;1094;-88
2023/08/29 05:49:41;169315.00;0.56;293.09;72526.00;0.24;126.13;;;;;18.40;6.40;;;;;;2276745;61;1119;-86
2023/08/29 05:52:08;448500.00;1.50;773.20;101543.00;0.34;176.24;;;;;18.40;7.00;;;;;;2276718;61;1253;-86
2023/08/29 05:54:36;263972.00;0.88;455.98;73302.00;0.24;127.47;;;;;18.40;6.70;;;;;;2276793;61;1138;-85
2023/08/29 05:57:04;275337.00;0.92;475.52;86586.00;0.29;150.41;;;;;18.50;6.30;;;;;;2276683;61;1611;-86
2023/08/29 05:59:30;320318.00;1.07;552.84;72703.00;0.24;126.43;;;;;18.30;6.80;;;;;;2276797;61;1085;-86
2023/08/29 06:01:59;249000.00;0.83;430.23;75696.00;0.25;131.60;;;;;18.30;7.40;;;;;;2276659;61;2110;-87
2023/08/29 06:04:25;165200.00;0.55;286.00;71705.00;0.24;124.71;;;;;18.40;7.20;;;;;;2276768;61;1114;-86
2023/08/29 06:06:52;250888.00;0.84;433.48;91206.00;0.30;158.39;;;;;18.30;6.80;;;;;;2276728;61;1149;-87
2023/08/29 06:09:19;171663.00;0.57;297.13;78058.00;0.26;135.68;;;;;18.30;6.60;;;;;;2276685;61;1047;-87
2023/08/29 06:11:46;228371.00;0.76;394.75;73489.00;0.24;127.79;;;;;18.20;7.50;;;;;;2276721;61;1305;-86
2023/08/29 06:14:13;512864.00;1.71;883.97;73062.00;0.24;127.05;;;;;18.30;7.20;;;;;;2276589;61;2208;-86
2023/08/29 06:16:40;256879.00;0.86;443.78;74654.00;0.25;129.80;;;;;18.30;7.10;;;;;;2276727;61;1030;-86
2023/08/29 06:19:08;427314.00;1.42;736.77;130207.00;0.43;225.69;;;;;18.10;7.40;;;;;;2276692;61;1126;-84
2023/08/29 06:21:35;201706.00;0.67;348.86;72603.00;0.24;126.26;;;;;18.10;8.30;;;;;;2276574;61;2048;-86
2023/08/29 06:24:02;0.00;0.00;0.62;0.00;0.00;0.62;;;;;18.00;8.10;;;;;;2276836;61;987;-86
2023/08/29 06:26:29;117010624.00;390.04;64893408.00;116958376.00;389.86;64806456.00;;;;;17.70;9.30;;;;;;2277340;61;1122;-85
2023/08/29 06:28:55;0.00;0.00;0.62;0.00;0.00;0.62;;;;;17.70;9.70;;;;;;2277371;61;1139;-86
2023/08/29 06:31:23;35875.00;0.12;62.75;0.00;0.00;0.62;;;;;18.00;9.20;;;;;;2277290;61;1289;-86
2023/08/29 06:33:50;144464.00;0.48;250.27;36283.00;0.12;63.46;;;;;18.10;9.10;;;;;;2277296;61;1627;-86
2023/08/29 06:36:18;46571.00;0.16;81.26;0.00;0.00;0.62;;;;;18.00;8.60;;;;;;2277316;61;975;-84
2023/08/29 06:38:45;263123.00;0.88;454.52;74647.00;0.25;129.79;;;;;18.10;8.60;;;;;;2277254;61;1083;-86
2023/08/29 06:41:12;118404.00;0.39;205.33;0.00;0.00;0.62;;;;;18.00;8.70;;;;;;2277092;61;1915;-84
2023/08/29 06:43:38;55483.00;0.18;96.67;0.00;0.00;0.62;;;;;17.90;8.60;;;;;;2277169;61;1032;-86
2023/08/29 06:46:05;38378.00;0.13;67.08;0.00;0.00;0.62;;;;;17.80;9.70;;;;;;2277266;61;1004;-86
2023/08/29 06:48:32;58236.00;0.19;101.43;0.00;0.00;0.62;;;;;17.90;9.80;;;;;;2277325;61;1031;-87
2023/08/29 06:50:59;0.00;0.00;0.62;0.00;0.00;0.62;;;;;18.10;9.40;;;;;;2277222;61;1411;-88
2023/08/29 06:53:27;66736.00;0.22;116.12;0.00;0.00;0.62;;;;;18.10;9.30;;;;;;2277118;61;1100;-87
2023/08/29 06:55:54;0.00;0.00;0.62;0.00;0.00;0.62;;;;;18.10;8.70;;;;;;2277192;61;1135;-86
2023/08/29 06:58:21;0.00;0.00;0.62;0.00;0.00;0.62;;;;;18.10;8.30;;;;;;2277192;61;2128;-86
2023/08/29 07:00:48;253920.00;0.85;438.69;0.00;0.00;0.62;;;;;18.10;9.20;;;;;;2277147;61;2001;-87
2023/08/29 07:03:15;0.00;0.00;0.62;0.00;0.00;0.62;;;;;18.00;9.10;;;;;;2277265;61;1130;-87
2023/08/29 07:05:42;0.00;0.00;0.62;0.00;0.00;0.62;;;;;18.00;10.00;;;;;;2276963;61;1126;-86
2023/08/29 07:08:08;0.00;0.00;0.62;0.00;0.00;0.62;;;;;18.00;10.50;;;;;;2277157;61;1036;-87
2023/08/29 07:10:37;0.00;0.00;0.62;0.00;0.00;0.62;;;;;18.00;9.80;;;;;;2277004;61;1376;-89
2023/08/29 07:13:05;88921.00;0.30;154.44;22028.00;0.07;38.78;;;;;18.00;10.20;;;;;;2277193;61;1100;-87
2023/08/29 07:15:31;0.00;0.00;0.62;0.00;0.00;0.62;;;;;17.90;9.50;;;;;;2277228;61;1040;-89
2023/08/29 07:17:58;47681.00;0.16;83.18;0.00;0.00;0.62;;;;;18.20;9.70;;;;;;2277222;61;1109;-87
2023/08/29 07:20:25;0.00;0.00;0.62;0.00;0.00;0.62;;;;;18.20;9.90;;;;;;2277096;61;2001;-87
2023/08/29 07:22:53;7304.00;0.02;13.28;0.00;0.00;0.62;;;;;18.40;8.90;;;;;;2277137;61;1036;-87
2023/08/29 07:25:20;36387.00;0.12;63.64;0.00;0.00;0.62;;;;;18.20;9.40;;;;;;2277170;61;1251;-87
2023/08/29 07:27:49;53905.00;0.18;93.94;0.00;0.00;0.62;;;;;18.30;8.50;;;;;;2277206;61;950;-87
2023/08/29 07:30:15;215004.00;0.72;371.75;29209.00;0.10;51.21;;;;;18.50;8.30;;;;;;2277108;61;1772;-88
2023/08/29 07:32:44;28193.00;0.09;49.46;0.00;0.00;0.62;;;;;18.60;8.20;;;;;;2277118;61;1371;-87
2023/08/29 07:35:10;0.00;0.00;0.62;0.00;0.00;0.62;;;;;18.80;7.70;;;;;;2277161;61;1039;-86
2023/08/29 07:37:37;0.00;0.00;0.62;0.00;0.00;0.62;;;;;18.50;7.40;;;;;;2277117;61;971;-86
2023/08/29 07:40:05;168487.00;0.56;291.66;0.00;0.00;0.62;;;;;18.30;9.10;;;;;;2277026;61;1923;-86
2023/08/29 07:42:32;0.00;0.00;0.62;0.00;0.00;0.62;;;;;18.10;8.60;;;;;;2277040;61;1376;-85
2023/08/29 07:45:00;0.00;0.00;0.62;0.00;0.00;0.62;;;;;18.30;9.60;;;;;;2277127;61;1053;-86
2023/08/29 07:47:27;0.00;0.00;0.62;0.00;0.00;0.62;;;;;18.60;9.70;;;;;;2277110;61;1094;-88
2023/08/29 07:49:54;46120.00;0.15;80.48;0.00;0.00;0.62;;;;;18.90;9.20;;;;;;2277141;61;1071;-89
2023/08/29 07:52:21;53092.00;0.18;92.53;0.00;0.00;0.62;;;;;18.70;8.40;;;;;;2276890;61;1302;-87
2023/08/29 07:54:47;33495.00;0.11;58.63;0.00;0.00;0.62;;;;;19.00;8.40;;;;;;2276967;61;1678;-86
2023/08/29 07:57:14;0.00;0.00;0.62;0.00;0.00;0.62;;;;;18.80;8.70;;;;;;2277100;61;1040;-86
2023/08/29 07:59:41;519161.00;1.73;894.82;164195.00;0.55;284.27;;;;;18.70;8.30;;;;;;2277109;61;944;-87
2023/08/29 08:02:09;0.00;0.00;0.62;0.00;0.00;0.62;;;;;18.80;8.00;;;;;;2276938;61;2175;-86
2023/08/29 08:04:37;29451.00;0.10;51.63;0.00;0.00;0.62;;;;;19.00;7.80;;;;;;2277031;61;1072;-87
2023/08/29 08:07:04;38053.00;0.13;66.52;0.00;0.00;0.62;;;;;19.10;8.20;;;;;;2277005;61;1603;-86
2023/08/29 08:09:31;0.00;0.00;0.62;0.00;0.00;0.62;;;;;19.00;9.90;;;;;;2277051;61;1074;-86
2023/08/29 08:11:58;0.00;0.00;0.62;0.00;0.00;0.62;;;;;19.20;8.50;;;;;;2277022;61;1306;-86
2023/08/29 08:14:25;105580.00;0.35;183.20;0.00;0.00;0.62;;;;;19.40;8.30;;;;;;2277045;61;1028;-87
2023/08/29 08:16:51;0.00;0.00;0.62;0.00;0.00;0.62;;;;;19.40;8.00;;;;;;2277000;61;1102;-87
2023/08/29 08:19:19;160750.00;0.54;278.33;22435.00;0.07;39.49;;;;;19.30;6.10;;;;;;2276970;61;1011;-87
2023/08/29 08:21:46;123223.00;0.41;213.64;6713.00;0.02;12.25;;;;;19.30;5.70;;;;;;2276819;61;2002;-86
2023/08/29 08:24:13;62351.00;0.21;108.54;0.00;0.00;0.62;;;;;19.20;7.00;;;;;;2276955;61;1088;-86
2023/08/29 08:26:40;78564.00;0.26;136.56;8632.00;0.03;15.58;;;;;19.40;5.70;;;;;;2276597;61;1084;-88
2023/08/29 08:29:07;192577.00;0.64;333.15;0.00;0.00;0.62;;;;;19.20;7.20;;;;;;2307316;40;3627;-87
2023/08/29 08:34:10;408228.00;1.36;703.95;0.00;0.00;0.62;;;;;19.00;7.00;;;;;;2376699;56;2097;-87
2023/08/29 08:41:38;1707589.00;5.69;3040.18;64583.00;0.22;112.40;;;;;19.00;7.80;;;;;;2294692;55;4017;-87
2023/08/29 08:44:09;144680.00;0.48;250.64;0.00;0.00;0.62;;;;;19.10;8.40;;;;;;2282894;55;3781;-88
2023/08/29 08:46:37;192088.00;0.64;332.30;0.00;0.00;0.62;;;;;19.20;8.80;;;;;;2272531;61;1086;-89
2023/08/29 08:49:05;157545.00;0.53;272.81;0.00;0.00;0.62;;;;;19.40;8.80;;;;;;2272774;61;1001;-88
2023/08/29 08:56:31;1024037.00;3.41;1775.09;0.00;0.00;0.62;;;;;20.00;5.80;;;;;;2265948;61;1207;-88
2023/08/29 09:06:30;1387817.00;4.63;2433.75;70969.00;0.24;123.43;;;;;20.10;4.90;;;;;;2285538;55;3661;-88
2023/08/29 09:08:57;421315.00;1.40;726.45;70710.00;0.24;122.99;;;;;20.10;5.90;;;;;;2286108;40;3573;-88
2023/08/29 09:11:25;336346.00;1.12;580.39;72731.00;0.24;126.48;;;;;20.20;5.50;;;;;;2278420;40;3640;-87
2023/08/29 09:13:52;336405.00;1.12;580.49;71227.00;0.24;123.88;;;;;20.40;4.10;;;;;;2272436;61;1095;-86
2023/08/29 09:16:21;404556.00;1.35;697.64;0.00;0.00;0.62;;;;;20.30;2.70;;;;;;2319998;40;3565;-87
2023/08/29 09:18:51;389460.00;1.30;671.69;78903.00;0.26;137.14;;;;;20.40;3.60;;;;;;2272575;61;1722;-89
2023/08/29 09:21:18;370408.00;1.23;638.94;73920.00;0.25;128.53;;;;;20.30;3.10;;;;;;2281038;40;3589;-88
2023/08/29 09:28:46;1231133.00;4.10;2146.61;67329.00;0.22;117.14;;;;;20.20;6.30;;;;;;2291241;55;3681;-88
2023/08/29 09:31:15;287927.00;0.96;497.17;81087.00;0.27;140.91;;;;;20.20;4.30;;;;;;2283951;40;3680;-88
2023/08/29 09:48:56;1541215.00;5.14;2720.92;75282.00;0.25;130.89;;;;;19.30;8.00;;;;;;2270739;61;965;-87
2023/08/29 09:56:27;1886085.00;6.29;3392.98;70649.00;0.24;122.88;;;;;20.00;6.20;;;;;;2289690;40;3516;-87
2023/08/29 10:23:52;1668614.00;5.56;2964.60;29833.00;0.10;52.29;;;;;21.40;4.90;;;;;;2284744;55;3631;-86
2023/08/29 10:33:48;1897879.00;6.33;3416.70;21464.00;0.07;37.81;;;;;21.90;1.00;;;;;;2282763;40;3485;-88
2023/08/29 10:36:17;688583.00;2.30;1187.45;19303.00;0.06;34.06;;;;;21.80;1.60;;;;;;2273226;61;1285;-88
2023/08/29 10:38:48;752206.00;2.51;1297.89;1995.00;0.01;4.08;;;;;21.90;1.00;;;;;;2273217;61;1016;-89
2023/08/29 10:41:16;683901.00;2.28;1179.33;19132.00;0.06;33.77;;;;;22.00;1.00;;;;;;2280390;56;3759;-88
2023/08/29 10:43:43;606466.00;2.02;1045.39;0.00;0.00;0.62;;;;;21.80;1.10;;;;;;2273221;61;988;-88
2023/08/29 10:46:17;299592.00;1.00;517.22;32194.00;0.11;56.38;;;;;21.80;2.70;;;;;;2273230;61;961;-88
2023/08/29 10:48:55;457913.00;1.53;789.39;75205.00;0.25;130.75;;;;;22.00;1.00;;;;;;2273156;61;1299;-86
2023/08/29 10:51:25;810801.00;2.70;1399.97;143863.00;0.48;249.23;;;;;21.90;1.00;;;;;;2273147;61;1341;-87
2023/08/29 10:53:53;267823.00;0.89;462.60;74031.00;0.25;128.73;;;;;22.10;1.00;;;;;;2273211;61;1206;-88
2023/08/29 10:56:26;377769.00;1.26;651.59;70326.00;0.23;122.32;;;;;22.30;1.00;;;;;;2273149;61;1649;-87
2023/08/29 10:58:53;192894.00;0.64;333.69;69237.00;0.23;120.44;;;;;22.30;1.00;;;;;;2273301;61;1125;-86
2023/08/29 11:01:31;95229.00;0.32;165.34;0.00;0.00;0.62;;;;;22.00;1.00;;;;;;2272975;61;2378;-88
2023/08/29 11:03:59;162683.00;0.54;281.66;0.00;0.00;0.62;;;;;21.70;1.00;;;;;;2273195;61;1048;-86